Florentia — 9HA4193 — position and weather

sailwx.info

Track history (hours):
 
Tides and Currents Weather Stations Pressure Air Temp Water Temp Dewpoint Dewpoint Depression Visibility Wind Speed Wind Dir Waves Ship Positions

Florentia

Last reported at 2018-Jan-11 11:41 UTC. Time now 2018-Jan-21 07:00 UTC.
Position N 35°45' W 006°11'.
Warning: this ship's position is 9 days out of date.

Length 200 m; draft 12.5 m.

Type: Cargo ship. MMSI: 249314000.

Date/timePositionNaut miles runAvg speedWind from/ knotsBaromVisibWave heightAir tempDewpointWater temp
2018-Jan-11 11:41N 35°45' W 006°11'710.9
2018-Jan-11 11:02N 35°50' W 006°05'2 9.7
2018-Jan-11 10:52N 35°51' W 006°03'410.5
2018-Jan-11 10:30N 35°54' W 006°00'5 9.8
2018-Jan-11 10:00N 35°57' W 005°55'510.4
2018-Jan-11 09:30N 35°57' W 005°49'5 9.9
2018-Jan-11 09:00N 35°58' W 005°42'5 9.8
2018-Jan-11 08:30N 35°58' W 005°37'4 8.8
2018-Jan-11 08:00N 35°59' W 005°31'5 9.1
2018-Jan-11 07:30N 36°01' W 005°26'4 7.6
2018-Jan-11 07:01N 36°03' W 005°22'510.1
2018-Jan-11 06:30N 36°08' W 005°22'0 0.4
2018-Jan-11 05:59N 36°08' W 005°22'0 0.1
2018-Jan-11 05:28N 36°08' W 005°22'0 0.0
2018-Jan-11 04:58N 36°08' W 005°22'0 0.1
2018-Jan-11 04:28N 36°08' W 005°22'0 0.0
2018-Jan-11 03:58N 36°08' W 005°22'0 0.1
2018-Jan-11 03:28N 36°08' W 005°22'0 0.0
2018-Jan-11 03:00N 36°08' W 005°22'0 0.1
2018-Jan-11 02:29N 36°08' W 005°22'0 0.1
2018-Jan-11 01:58N 36°08' W 005°22'0 0.1
2018-Jan-11 01:28N 36°08' W 005°22'0 0.0
2018-Jan-11 00:58N 36°08' W 005°22'0 0.1
2018-Jan-11 00:28N 36°08' W 005°22'0 0.0
2018-Jan-10 23:58N 36°08' W 005°22'0 0.0
2018-Jan-10 23:28N 36°08' W 005°22'0 0.2
2018-Jan-10 22:58N 36°08' W 005°22'0 0.0
2018-Jan-10 22:30N 36°08' W 005°22'1 1.2
2018-Jan-10 22:01N 36°07' W 005°22'2 4.7
2018-Jan-10 21:31N 36°06' W 005°20'2 4.6
2018-Jan-10 21:00N 36°06' W 005°17'4 8.1
2018-Jan-10 20:30N 36°09' W 005°14'4 7.8
2018-Jan-10 20:00N 36°11' W 005°10'0 0.8
2018-Jan-10 19:28N 36°11' W 005°10'0 0.4
2018-Jan-10 18:22N 36°11' W 005°10'0 0.4
2018-Jan-10 17:58N 36°10' W 005°10'0 0.4
2018-Jan-10 17:10N 36°11' W 005°11'0 0.1
2018-Jan-10 16:55N 36°11' W 005°11'1 1.6
2018-Jan-10 16:29N 36°11' W 005°10'2 5.1
2018-Jan-10 16:00N 36°11' W 005°07'5 8.8
2018-Jan-10 15:28N 36°09' W 005°02'510.2
2018-Jan-10 15:00N 36°08' W 004°56'510.5
2018-Jan-10 14:29N 36°09' W 004°49'510.3
2018-Jan-10 14:00N 36°09' W 004°43'5 9.9
2018-Jan-10 13:29N 36°09' W 004°36'  
2018-Jan-07 22:25N 37°37' E 009°34'511.0
2018-Jan-07 21:58N 37°37' E 009°41'5510.0
2018-Jan-07 16:26N 37°32' E 010°50'7711.3
2018-Jan-07 09:40N 37°09' E 012°22'212.1
2018-Jan-07 09:30N 37°08' E 012°24'612.3
2018-Jan-07 09:00N 37°07' E 012°32'7411.6
2018-Jan-07 02:39N 36°48' E 014°01'211.6
2018-Jan-07 02:27N 36°47' E 014°04'1511.9
2018-Jan-07 01:09N 36°43' E 014°22'811.8
2018-Jan-07 00:30N 36°41' E 014°32'612.2
2018-Jan-07 00:00N 36°40' E 014°39'612.0
2018-Jan-06 23:30N 36°39' E 014°47'911.4
2018-Jan-06 22:43N 36°37' E 014°57'210.9
2018-Jan-06 22:30N 36°36' E 015°00'611.4
2018-Jan-06 22:01N 36°36' E 015°07'612.2
2018-Jan-06 21:30N 36°36' E 015°15'611.8
2018-Jan-06 21:00N 36°36' E 015°22'611.8
2018-Jan-06 20:30N 36°35' E 015°30'611.8
2018-Jan-06 19:59N 36°35' E 015°37'33811.7
2018-Jan-05 15:02N 36°23' E 022°37'011.1
2018-Jan-05 15:00N 36°23' E 022°38'5811.5
2018-Jan-05 09:57N 36°21' E 023°50'511.5
2018-Jan-05 09:30N 36°20' E 023°56'611.6
2018-Jan-05 09:00N 36°20' E 024°04'611.6
2018-Jan-05 08:31N 36°20' E 024°11'611.4
2018-Jan-05 08:00N 36°20' E 024°18'511.0
2018-Jan-05 07:30N 36°19' E 024°25'611.0
2018-Jan-05 07:00N 36°19' E 024°32'510.9
2018-Jan-05 06:30N 36°19' E 024°38'510.7
2018-Jan-05 06:00N 36°19' E 024°45'510.5
2018-Jan-05 05:31N 36°19' E 024°51'510.4
2018-Jan-05 05:00N 36°19' E 024°58'510.3
2018-Jan-05 04:31N 36°18' E 025°04'510.3
2018-Jan-05 04:01N 36°18' E 025°11'510.1
2018-Jan-05 03:31N 36°18' E 025°17'510.5
2018-Jan-05 03:00N 36°17' E 025°23'510.5
2018-Jan-05 02:31N 36°16' E 025°30'5 9.6
2018-Jan-05 02:01N 36°16' E 025°36'4 9.0
2018-Jan-05 01:30N 36°15' E 025°41'4 8.6
2018-Jan-05 01:01N 36°14' E 025°46'4 8.8
2018-Jan-05 00:30N 36°13' E 025°52'5 9.1
2018-Jan-05 00:00N 36°12' E 025°57'4 8.7
2018-Jan-04 23:30N 36°12' E 026°03'4 8.6
2018-Jan-04 23:00N 36°11' E 026°08'5 9.0
2018-Jan-04 22:30N 36°10' E 026°13'5 9.9
2018-Jan-04 22:01N 36°09' E 026°19'5 9.4
2018-Jan-04 21:30N 36°09' E 026°25'5 9.1
2018-Jan-04 21:00N 36°08' E 026°31'4 8.4
2018-Jan-04 20:30N 36°07' E 026°36'4 7.9
2018-Jan-04 20:00N 36°06' E 026°40'4 7.4
2018-Jan-04 19:29N 36°05' E 026°45'  
Track history (hours):
 
Tides and Currents Weather Stations Pressure Air Temp Water Temp Dewpoint Dewpoint Depression Visibility Wind Speed Wind Dir Waves Ship Positions

Florentia

Last reported at 2018-Jan-11 11:41 UTC. Time now 2018-Jan-21 07:00 UTC.
Position N 35°45' W 006°11'.
Warning: this ship's position is 9 days out of date.

Length 200 m; draft 12.5 m.

Type: Cargo ship. MMSI: 249314000.

Date/timePositionNaut miles runAvg speedWind from/ knotsBaromVisibWave heightAir tempDewpointWater temp
2018-Jan-11 11:41N 35°45' W 006°11'710.9
2018-Jan-11 11:02N 35°50' W 006°05'2 9.7
2018-Jan-11 10:52N 35°51' W 006°03'410.5
2018-Jan-11 10:30N 35°54' W 006°00'5 9.8
2018-Jan-11 10:00N 35°57' W 005°55'510.4
2018-Jan-11 09:30N 35°57' W 005°49'5 9.9
2018-Jan-11 09:00N 35°58' W 005°42'5 9.8
2018-Jan-11 08:30N 35°58' W 005°37'4 8.8
2018-Jan-11 08:00N 35°59' W 005°31'5 9.1
2018-Jan-11 07:30N 36°01' W 005°26'4 7.6
2018-Jan-11 07:01N 36°03' W 005°22'510.1
2018-Jan-11 06:30N 36°08' W 005°22'0 0.4
2018-Jan-11 05:59N 36°08' W 005°22'0 0.1
2018-Jan-11 05:28N 36°08' W 005°22'0 0.0
2018-Jan-11 04:58N 36°08' W 005°22'0 0.1
2018-Jan-11 04:28N 36°08' W 005°22'0 0.0
2018-Jan-11 03:58N 36°08' W 005°22'0 0.1
2018-Jan-11 03:28N 36°08' W 005°22'0 0.0
2018-Jan-11 03:00N 36°08' W 005°22'0 0.1
2018-Jan-11 02:29N 36°08' W 005°22'0 0.1
2018-Jan-11 01:58N 36°08' W 005°22'0 0.1
2018-Jan-11 01:28N 36°08' W 005°22'0 0.0
2018-Jan-11 00:58N 36°08' W 005°22'0 0.1
2018-Jan-11 00:28N 36°08' W 005°22'0 0.0
2018-Jan-10 23:58N 36°08' W 005°22'0 0.0
2018-Jan-10 23:28N 36°08' W 005°22'0 0.2
2018-Jan-10 22:58N 36°08' W 005°22'0 0.0
2018-Jan-10 22:30N 36°08' W 005°22'1 1.2
2018-Jan-10 22:01N 36°07' W 005°22'2 4.7
2018-Jan-10 21:31N 36°06' W 005°20'2 4.6
2018-Jan-10 21:00N 36°06' W 005°17'4 8.1
2018-Jan-10 20:30N 36°09' W 005°14'4 7.8
2018-Jan-10 20:00N 36°11' W 005°10'0 0.8
2018-Jan-10 19:28N 36°11' W 005°10'0 0.4
2018-Jan-10 18:22N 36°11' W 005°10'0 0.4
2018-Jan-10 17:58N 36°10' W 005°10'0 0.4
2018-Jan-10 17:10N 36°11' W 005°11'0 0.1
2018-Jan-10 16:55N 36°11' W 005°11'1 1.6
2018-Jan-10 16:29N 36°11' W 005°10'2 5.1
2018-Jan-10 16:00N 36°11' W 005°07'5 8.8
2018-Jan-10 15:28N 36°09' W 005°02'510.2
2018-Jan-10 15:00N 36°08' W 004°56'510.5
2018-Jan-10 14:29N 36°09' W 004°49'510.3
2018-Jan-10 14:00N 36°09' W 004°43'5 9.9
2018-Jan-10 13:29N 36°09' W 004°36'  
2018-Jan-07 22:25N 37°37' E 009°34'511.0
2018-Jan-07 21:58N 37°37' E 009°41'5510.0
2018-Jan-07 16:26N 37°32' E 010°50'7711.3
2018-Jan-07 09:40N 37°09' E 012°22'212.1
2018-Jan-07 09:30N 37°08' E 012°24'612.3
2018-Jan-07 09:00N 37°07' E 012°32'7411.6
2018-Jan-07 02:39N 36°48' E 014°01'211.6
2018-Jan-07 02:27N 36°47' E 014°04'1511.9
2018-Jan-07 01:09N 36°43' E 014°22'811.8
2018-Jan-07 00:30N 36°41' E 014°32'612.2
2018-Jan-07 00:00N 36°40' E 014°39'612.0
2018-Jan-06 23:30N 36°39' E 014°47'911.4
2018-Jan-06 22:43N 36°37' E 014°57'210.9
2018-Jan-06 22:30N 36°36' E 015°00'611.4
2018-Jan-06 22:01N 36°36' E 015°07'612.2
2018-Jan-06 21:30N 36°36' E 015°15'611.8
2018-Jan-06 21:00N 36°36' E 015°22'611.8
2018-Jan-06 20:30N 36°35' E 015°30'611.8
2018-Jan-06 19:59N 36°35' E 015°37'33811.7
2018-Jan-05 15:02N 36°23' E 022°37'011.1
2018-Jan-05 15:00N 36°23' E 022°38'5811.5
2018-Jan-05 09:57N 36°21' E 023°50'511.5
2018-Jan-05 09:30N 36°20' E 023°56'611.6
2018-Jan-05 09:00N 36°20' E 024°04'611.6
2018-Jan-05 08:31N 36°20' E 024°11'611.4
2018-Jan-05 08:00N 36°20' E 024°18'511.0
2018-Jan-05 07:30N 36°19' E 024°25'611.0
2018-Jan-05 07:00N 36°19' E 024°32'510.9
2018-Jan-05 06:30N 36°19' E 024°38'510.7
2018-Jan-05 06:00N 36°19' E 024°45'510.5
2018-Jan-05 05:31N 36°19' E 024°51'510.4
2018-Jan-05 05:00N 36°19' E 024°58'510.3
2018-Jan-05 04:31N 36°18' E 025°04'510.3
2018-Jan-05 04:01N 36°18' E 025°11'510.1
2018-Jan-05 03:31N 36°18' E 025°17'510.5
2018-Jan-05 03:00N 36°17' E 025°23'510.5
2018-Jan-05 02:31N 36°16' E 025°30'5 9.6
2018-Jan-05 02:01N 36°16' E 025°36'4 9.0
2018-Jan-05 01:30N 36°15' E 025°41'4 8.6
2018-Jan-05 01:01N 36°14' E 025°46'4 8.8
2018-Jan-05 00:30N 36°13' E 025°52'5 9.1
2018-Jan-05 00:00N 36°12' E 025°57'4 8.7
2018-Jan-04 23:30N 36°12' E 026°03'4 8.6
2018-Jan-04 23:00N 36°11' E 026°08'5 9.0
2018-Jan-04 22:30N 36°10' E 026°13'5 9.9
2018-Jan-04 22:01N 36°09' E 026°19'5 9.4
2018-Jan-04 21:30N 36°09' E 026°25'5 9.1
2018-Jan-04 21:00N 36°08' E 026°31'4 8.4
2018-Jan-04 20:30N 36°07' E 026°36'4 7.9
2018-Jan-04 20:00N 36°06' E 026°40'4 7.4
2018-Jan-04 19:29N 36°05' E 026°45'  

Dump ship's entire track history